AirNav   Air Wisconsin pilot careers
 
 1047 users online  

T32 Sudden Stop Airport
Collinsville, Texas, USA

GOING TO COLLINSVILLE?


FAA INFORMATION EFFECTIVE 04 JANUARY 2018

Location

FAA Identifier: T32
Lat/Long: 33-34-17.3920N / 096-54-26.0090W
33-34.289867N / 096-54.433483W
33.5714978 / -96.9072247
(estimated)
Elevation: 720 ft. / 219 m (estimated)
Variation: 07E (1980)
From city: 1 mile NE of COLLINSVILLE, TX
Time zone: UTC -6 (UTC -5 during Daylight Saving Time)
Zip code: 76233

Airport Operations

Airport use: Open to the public
Activation date: 11/1986
Control tower: no
ARTCC: FORT WORTH CENTER
FSS: FORT WORTH FLIGHT SERVICE STATION
NOTAMs facility: FTW (NOTAM-D service available)
Attendance: CONTINUOUS
Wind indicator: yes
Segmented circle: no

Airport Communications

CTAF: 122.9
WX AWOS-3 at GYI (14 nm NE): 118.775 (903-786-7790)
WX AWOS-3 at GLE (15 nm W): 118.375 (940-612-3549)

Nearby radio navigation aids

VOR radial/distance  VOR name  Freq  Var
BYPr267/33.7BONHAM VORTAC114.6006E
URHr224/34.1TEXOMA VOR/DME114.3005E

 
NDB name  Hdg/Dist  Freq  Var  ID
DENISON212/19.434106EDNI -.. -. ..
MELISA316/24.542103EVLY ...- .-.. -.--

Airport Services

Parking: tiedowns

Runway Information

Runway 17/35

Dimensions: 1550 x 60 ft. / 472 x 18 m
Surface: turf, in good condition
RUNWAY 17  RUNWAY 35
Traffic pattern: leftleft
Obstructions: 30 ft. trees15 ft. road, 6 ft. from runway

Airport Ownership and Management from official FAA records

Ownership: Privately-owned
Owner: DON SWINDLE
1207 JOGGERS TRAIL
COLLINSVILLE, TX 76233
Phone 903-429-6343
OWNER LIVES ADJACENT.
Manager: DON SWINDLE
1207 JOGGERS TRAIL
COLLINSVILLE, TX 76233
Phone 903-429-6343

Airport Operational Statistics

Aircraft based on the field: 6
Single engine airplanes: 6
    
Aircraft operations: avg 50/month *
67% transient general aviation
33% local general aviation
* for 12-month period ending 30 June 2016

Additional Remarks

STUDENT TRNG PROHIBITED.
RY 17/35 THLDS UNMARKED.

Instrument Procedures

There are no published instrument procedures at T32.

Some nearby airports with instrument procedures:

KGYI - North Texas Regional Airport/Perrin Field (14 nm NE)
KGLE - Gainesville Municipal Airport (15 nm W)
KSWI - Sherman Municipal Airport (16 nm E)
KDTO - Denton Enterprise Airport (27 nm SW)
KTKI - McKinney National Airport (29 nm SE)
 
Loc | Ops | Rwys | IFR | FBO | Links
Com | Nav | Svcs | Stats | Notes

Lake Texoma Jet Center
AirBoss

 
Area around T32 (Sudden Stop Airport)
 
Road maps at: MapQuest Bing Google
 
Aerial photo
WARNING: Photo may not be current or correct
Aerial photo of T32 (Sudden Stop Airport)
Do you have a better or more recent aerial photo of Sudden Stop Airport that you would like to share? If so, please send us your photo.

 
Sectional chart

 
Airport distance calculator
Flying to Sudden Stop Airport? Find the distance to fly.

From to T32

Sunrise and sunset
Times for 20-Jan-2018
 Local
(UTC-6)
 Zulu
(UTC)
Morning civil twilight07:0513:05
Sunrise07:3113:31
Sunset17:4623:46
Evening civil twilight18:1300:13

Current date and time
Zulu (UTC)  20-Jan-2018 15:59:27
Local (UTC-6)  20-Jan-2018 09:59:27
 
METAR
KGYI 
14nm NE 
201535Z AUTO 19020G28KT 10SM CLR 14/10 A2999 RMK AO2 T01420100
KGLE 
15nm W 
201535Z AUTO 18018G22KT 10SM SCT013 13/08 A2998 RMK AO2 T01280081
KDTO 
27nm SW 
201553Z 20016G22KT 10SM CLR 14/09 A2999 RMK AO2 SLP154 T01440094
KTKI 
28nm SE 
201553Z 19019G25KT 10SM OVC014 14/12 A3000 RMK AO2 SLP166 T01440122
TAF
KDFW 
41nm S 
201323Z 2013/2118 18015KT P6SM SCT017 TEMPO 2013/2015 BKN017 FM201700 17017KT P6SM SCT050 FM210600 18015KT P6SM BKN012 FM211700 21015KT P6SM VCSH BKN028
KAFW 
42nm SW 
201324Z 2013/2112 18014G24KT P6SM SCT015 TEMPO 2013/2015 BKN015 FM201700 17017KT P6SM SCT050 FM210600 18015KT P6SM BKN012
KDAL 
43nm S 
201128Z 2012/2112 18014G24KT P6SM BKN016 FM201700 17017KT P6SM SCT050 FM210600 18015KT P6SM BKN012
KFTW 
50nm SW 
201324Z 2013/2112 18014G24KT P6SM SCT013 TEMPO 2013/2015 BKN013 FM201700 17017KT P6SM SCT050 FM210600 18015KT P6SM BKN012
NOTAMs
Click for the latest NOTAMs
NOTAMs are issued by the DoD/FAA and will open in a separate window not controlled by AirNav.

 

 
 

Would you like to see your business listed on this page?

 If your business provides an interesting product or service to pilots, flight crews, aircraft, or users of the Sudden Stop Airport, you should consider listing it here.  To start the listing process, click on the button below
 
Add a business
 

Other Pages about Sudden Stop Airport

Update a link
 
Copyright © AirNav, LLC. All rights reserved. Privacy Policy  Contact